Havana, North Dakota
Current Conditions -  °F | °C
As of 7:55 PM on Monday 24 Nov 2014 (Local Time) from KGWR Reporting Station
Clear Clear  
Wind Chill:   Ceiling: Unl
Heat Index: 18°   Visibility: 10mi
Dew Point:   Wind: 10mph
Humidity: 58%   Direction: 300°WNW
Pressure: 30.01"   Gusts: NA
Location:  45.95°N, 97.62°W
Report Text: KGWR 250155Z AUTO 30009KT 10SM CLR M08/M15 A3001 RMK A01 P000
Loading
Personal Weather Stations






























Interactive Weather Map New forecast layout! Learn more

10-Day Weather Forecast

Advertisements
Track Severe Weather on mobile